createdAt,value
2023-01-26T00:00:04.823Z,0.09
2023-01-26T00:02:51.314Z,0.03
2023-01-26T00:05:38.341Z,-0.10
2023-01-26T00:08:26.515Z,0.05
2023-01-26T00:11:18.307Z,0.12
2023-01-26T00:14:05.011Z,0.37
2023-01-26T00:16:55.711Z,0.37
2023-01-26T00:19:42.402Z,0.05
2023-01-26T00:22:29.140Z,0.15
2023-01-26T00:25:17.577Z,0.24
2023-01-26T00:28:04.582Z,0.21
2023-01-26T00:30:51.331Z,0.29
2023-01-26T00:33:38.123Z,0.18
2023-01-26T00:36:25.546Z,-0.07
2023-01-26T00:39:12.101Z,0.10
2023-01-26T00:42:10.979Z,0.29
2023-01-26T00:44:57.538Z,0.26
2023-01-26T00:47:44.972Z,0.24
2023-01-26T00:50:31.781Z,0.28
2023-01-26T00:53:18.618Z,0.29
2023-01-26T00:56:07.536Z,0.32
2023-01-26T00:58:55.440Z,0.42
2023-01-26T01:01:42.344Z,0.43
2023-01-26T01:04:29.920Z,0.38
2023-01-26T01:07:16.671Z,0.36
2023-01-26T01:10:03.614Z,0.30
2023-01-26T01:12:52.988Z,0.38
2023-01-26T01:15:41.276Z,0.36
2023-01-26T01:18:28.295Z,0.34
2023-01-26T01:21:17.648Z,0.21
2023-01-26T01:24:04.813Z,0.20
2023-01-26T01:26:52.781Z,0.12
2023-01-26T01:29:39.478Z,0.13
2023-01-26T01:32:27.792Z,-0.01
2023-01-26T01:35:14.683Z,0.15
2023-01-26T01:38:03.687Z,0.33
2023-01-26T01:40:50.213Z,0.35
2023-01-26T01:43:38.628Z,0.39
2023-01-26T01:46:33.539Z,0.36
2023-01-26T01:49:26.117Z,0.18
2023-01-26T01:52:17.696Z,0.12
2023-01-26T01:55:07.632Z,0.17
2023-01-26T01:57:59.033Z,0.05
2023-01-26T02:00:45.822Z,0.21
2023-01-26T02:03:34.253Z,0.30
2023-01-26T02:06:26.077Z,0.20
2023-01-26T02:09:30.994Z,0.24
2023-01-26T02:12:20.787Z,0.26
2023-01-26T02:15:09.631Z,0.31
2023-01-26T02:17:56.412Z,0.24
2023-01-26T02:20:48.048Z,0.19
2023-01-26T02:24:01.404Z,0.15
2023-01-26T02:26:49.722Z,0.28
2023-01-26T02:29:37.226Z,0.30
2023-01-26T02:32:23.660Z,0.34
2023-01-26T02:35:10.867Z,0.24
2023-01-26T02:37:58.020Z,0.02
2023-01-26T02:40:50.199Z,-0.12
2023-01-26T02:43:40.418Z,0.16
2023-01-26T02:46:26.956Z,0.08
2023-01-26T02:49:31.023Z,0.19
2023-01-26T02:52:19.422Z,0.19
2023-01-26T02:55:25.187Z,-0.07
2023-01-26T02:58:12.771Z,0.13
2023-01-26T03:01:00.787Z,-0.08
2023-01-26T03:03:48.216Z,-0.21
2023-01-26T03:06:34.820Z,-0.23
2023-01-26T03:09:21.559Z,0.06
2023-01-26T03:12:08.675Z,-0.09
2023-01-26T03:15:09.693Z,0.08
2023-01-26T03:18:36.747Z,0.24
2023-01-26T03:21:41.067Z,0.10
2023-01-26T03:24:45.032Z,0.26
2023-01-26T03:27:37.128Z,0.31
2023-01-26T03:30:23.632Z,0.31
2023-01-26T03:33:12.176Z,0.24
2023-01-26T03:35:59.354Z,0.10
2023-01-26T03:38:47.257Z,0.10
2023-01-26T03:41:51.289Z,0.13
2023-01-26T03:44:55.551Z,-0.15
2023-01-26T03:48:00.628Z,-0.26
2023-01-26T03:51:06.043Z,-0.10
2023-01-26T03:54:10.037Z,-0.04
2023-01-26T03:56:56.842Z,-0.06
2023-01-26T03:59:44.675Z,-0.21
2023-01-26T04:02:54.941Z,-0.15
2023-01-26T04:06:15.434Z,0.04
2023-01-26T04:09:07.337Z,-0.08
2023-01-26T04:11:53.961Z,-0.20
2023-01-26T04:14:58.372Z,-0.19
2023-01-26T04:18:04.114Z,-0.22
2023-01-26T04:21:09.212Z,-0.09
2023-01-26T04:23:59.193Z,0.15
2023-01-26T04:26:47.042Z,0.18
2023-01-26T04:29:37.909Z,0.12
2023-01-26T04:32:24.495Z,0.22
2023-01-26T04:35:13.366Z,0.06
2023-01-26T04:38:00.154Z,0.28
2023-01-26T04:40:53.674Z,0.17
2023-01-26T04:43:43.301Z,0.06
2023-01-26T04:46:30.025Z,-0.04
2023-01-26T04:49:16.815Z,0.07
2023-01-26T04:52:03.986Z,0.08
2023-01-26T04:54:50.731Z,0.26
2023-01-26T04:57:37.672Z,0.29
2023-01-26T05:00:26.491Z,0.32
2023-01-26T05:03:18.030Z,0.08
2023-01-26T05:06:05.218Z,0.16
2023-01-26T05:08:51.855Z,0.16
2023-01-26T05:11:38.741Z,0.25
2023-01-26T05:14:36.744Z,0.04
2023-01-26T05:17:53.373Z,0.12
2023-01-26T05:21:03.422Z,0.29
2023-01-26T05:23:58.267Z,0.14
2023-01-26T05:27:12.732Z,0.15
2023-01-26T05:30:01.062Z,0.11
2023-01-26T05:32:50.189Z,0.26
2023-01-26T05:35:38.313Z,0.18
2023-01-26T05:38:35.517Z,-0.02
2023-01-26T05:41:23.238Z,0.15
2023-01-26T05:44:47.848Z,-0.10
2023-01-26T05:47:37.406Z,-0.02
2023-01-26T05:50:24.061Z,-0.82
2023-01-26T05:53:31.819Z,0.06
2023-01-26T05:56:18.567Z,0.24
2023-01-26T05:59:10.786Z,0.16
2023-01-26T06:01:57.555Z,-0.01
2023-01-26T06:04:45.428Z,-0.16
2023-01-26T06:07:32.363Z,-0.24
2023-01-26T06:10:29.301Z,-0.03
2023-01-26T06:13:24.521Z,0.15
2023-01-26T06:16:22.600Z,-0.13
2023-01-26T06:19:16.135Z,0.02
2023-01-26T06:22:09.153Z,-0.03
2023-01-26T06:24:57.952Z,0.19
2023-01-26T06:27:46.107Z,0.28
2023-01-26T06:30:40.546Z,0.33
2023-01-26T06:33:32.367Z,0.33
2023-01-26T06:36:19.261Z,0.28
2023-01-26T06:39:08.294Z,0.33
2023-01-26T06:41:55.201Z,0.15
2023-01-26T06:44:43.741Z,0.23
2023-01-26T06:47:31.239Z,0.16
2023-01-26T06:50:21.286Z,0.20
2023-01-26T06:53:27.626Z,0.14
2023-01-26T06:56:34.242Z,0.07
2023-01-26T06:59:40.239Z,0.00
2023-01-26T07:02:54.713Z,-0.02
2023-01-26T07:05:41.389Z,0.01
2023-01-26T07:08:27.917Z,-0.10
2023-01-26T07:11:15.215Z,0.09
2023-01-26T07:14:01.928Z,0.04
2023-01-26T07:16:48.796Z,0.14
2023-01-26T07:19:37.485Z,-0.03
2023-01-26T07:22:24.533Z,0.11
2023-01-26T07:25:11.230Z,0.10
2023-01-26T07:27:58.443Z,-0.32
2023-01-26T07:30:45.290Z,0.00
2023-01-26T07:33:32.716Z,0.09
2023-01-26T07:36:20.743Z,0.10
2023-01-26T07:39:08.620Z,0.00
2023-01-26T07:41:55.396Z,0.05
2023-01-26T07:45:07.882Z,0.06
2023-01-26T07:47:55.698Z,0.04
2023-01-26T07:50:42.173Z,0.03
2023-01-26T07:53:31.008Z,0.00
2023-01-26T07:56:20.677Z,-0.04
2023-01-26T07:59:07.606Z,0.01
2023-01-26T08:01:54.324Z,0.02
2023-01-26T08:04:40.988Z,-0.01
2023-01-26T08:07:27.919Z,-0.13
2023-01-26T08:10:16.145Z,-0.18
2023-01-26T08:13:03.154Z,-0.09
2023-01-26T08:15:50.043Z,-0.23
2023-01-26T08:18:36.778Z,-0.19
2023-01-26T08:21:23.622Z,-0.15
2023-01-26T08:24:12.858Z,-0.18
2023-01-26T08:27:01.359Z,-0.17
2023-01-26T08:29:47.936Z,-0.16
2023-01-26T08:32:34.568Z,-0.23
2023-01-26T08:35:21.334Z,-0.31
2023-01-26T08:38:08.188Z,-0.17
2023-01-26T08:40:54.903Z,-0.16
2023-01-26T08:43:42.979Z,-0.11
2023-01-26T08:46:29.778Z,-0.27
2023-01-26T08:49:16.485Z,-0.38
2023-01-26T08:52:04.201Z,-0.26
2023-01-26T08:54:51.051Z,-0.27
2023-01-26T08:57:37.661Z,-0.34
2023-01-26T09:00:26.587Z,-0.26
2023-01-26T09:03:13.657Z,-0.18
2023-01-26T09:06:01.423Z,-0.19
2023-01-26T09:08:48.071Z,-0.21
2023-01-26T09:11:34.620Z,-0.26
2023-01-26T09:14:21.396Z,-0.26
2023-01-26T09:17:09.496Z,-0.30
2023-01-26T09:19:56.342Z,-0.30
2023-01-26T09:22:44.032Z,-0.40
2023-01-26T09:25:30.735Z,-0.34
2023-01-26T09:28:17.444Z,-0.20
2023-01-26T09:31:05.995Z,-0.19
2023-01-26T09:33:54.349Z,-0.16
2023-01-26T09:36:44.125Z,-0.15
2023-01-26T09:39:33.274Z,-0.05
2023-01-26T09:42:49.118Z,0.08
2023-01-26T09:45:42.886Z,0.04
2023-01-26T09:48:42.219Z,-0.09
2023-01-26T09:51:36.184Z,-0.07
2023-01-26T09:54:28.853Z,-0.05
2023-01-26T09:57:18.446Z,-0.17
2023-01-26T10:00:09.714Z,-0.25
2023-01-26T10:03:06.490Z,0.06
2023-01-26T10:05:59.088Z,0.08
2023-01-26T10:09:14.149Z,0.12
2023-01-26T10:12:04.277Z,-0.06
2023-01-26T10:14:56.469Z,0.16
2023-01-26T10:17:46.281Z,0.31
2023-01-26T10:20:36.343Z,0.17
2023-01-26T10:23:26.813Z,0.27
2023-01-26T10:26:17.428Z,-0.86
2023-01-26T10:29:05.647Z,0.14
2023-01-26T10:31:52.381Z,0.20
2023-01-26T10:34:41.174Z,0.16
2023-01-26T10:37:30.890Z,0.14
2023-01-26T10:40:18.575Z,0.19
2023-01-26T10:43:06.423Z,0.16
2023-01-26T10:45:53.248Z,0.08
2023-01-26T10:48:39.795Z,0.05
2023-01-26T10:51:29.740Z,0.17
2023-01-26T10:54:21.916Z,0.19
2023-01-26T10:57:18.581Z,0.15
2023-01-26T11:00:13.547Z,0.11
2023-01-26T11:03:06.574Z,0.06
2023-01-26T11:06:07.201Z,0.11
2023-01-26T11:08:53.977Z,0.13
2023-01-26T11:11:41.219Z,0.15
2023-01-26T11:14:28.700Z,0.16
2023-01-26T11:17:27.315Z,0.06
2023-01-26T11:20:46.817Z,0.16
2023-01-26T11:23:49.876Z,0.23
2023-01-26T11:27:03.139Z,0.21
2023-01-26T11:30:28.311Z,0.23
2023-01-26T11:33:26.732Z,0.18
2023-01-26T11:36:23.752Z,0.16
2023-01-26T11:39:20.398Z,0.15
2023-01-26T11:42:21.208Z,0.11
2023-01-26T11:45:23.135Z,0.07
2023-01-26T11:48:22.813Z,0.07
2023-01-26T11:51:21.724Z,0.15
2023-01-26T11:54:32.274Z,0.04
2023-01-26T11:57:28.735Z,0.22
2023-01-26T12:00:29.620Z,0.27
2023-01-26T12:03:24.782Z,0.26
2023-01-26T12:06:19.754Z,0.28
2023-01-26T12:09:19.019Z,0.30
2023-01-26T12:12:11.402Z,0.31
2023-01-26T12:15:05.945Z,0.36
2023-01-26T12:18:00.829Z,0.25
2023-01-26T12:20:51.967Z,0.22
2023-01-26T12:23:45.683Z,0.29
2023-01-26T12:26:39.521Z,0.26
2023-01-26T12:29:31.577Z,0.29
2023-01-26T12:32:18.496Z,0.07
2023-01-26T12:35:05.647Z,0.23
2023-01-26T12:38:16.964Z,0.16
2023-01-26T12:41:12.472Z,0.10
2023-01-26T12:44:11.814Z,0.15
2023-01-26T12:47:05.113Z,0.17
2023-01-26T12:49:59.836Z,0.24
2023-01-26T12:52:52.751Z,0.20
2023-01-26T12:55:45.637Z,0.13
2023-01-26T12:58:39.088Z,-0.04
2023-01-26T13:01:38.482Z,0.16
2023-01-26T13:04:25.620Z,0.18
2023-01-26T13:07:30.449Z,0.08
2023-01-26T13:10:45.483Z,0.00
2023-01-26T13:13:36.206Z,0.05
2023-01-26T13:16:34.630Z,-0.03
2023-01-26T13:19:54.995Z,0.00
2023-01-26T13:22:42.737Z,0.03
2023-01-26T13:25:35.175Z,0.06
2023-01-26T13:28:29.182Z,-0.07
2023-01-26T13:31:34.110Z,-0.01
2023-01-26T13:34:25.615Z,-0.01
2023-01-26T13:37:17.605Z,0.04
2023-01-26T13:40:14.891Z,0.09
2023-01-26T13:43:20.770Z,0.11
2023-01-26T13:46:20.883Z,0.06
2023-01-26T13:49:25.012Z,-0.04
2023-01-26T13:52:19.142Z,-0.03
2023-01-26T13:55:21.976Z,-0.05
2023-01-26T13:58:13.070Z,-0.08
2023-01-26T14:01:00.916Z,-0.09
2023-01-26T14:04:05.880Z,-0.06
2023-01-26T14:06:57.852Z,-0.07
2023-01-26T14:09:47.913Z,-0.15
2023-01-26T14:12:37.395Z,-0.09
2023-01-26T14:15:27.152Z,-0.39
2023-01-26T14:18:23.285Z,-0.45
2023-01-26T14:21:20.089Z,-0.15
2023-01-26T14:24:10.559Z,-0.26
2023-01-26T14:26:58.646Z,-0.17
2023-01-26T14:29:47.432Z,-0.14
2023-01-26T14:32:34.928Z,-0.15
2023-01-26T14:35:24.269Z,-0.26
2023-01-26T14:38:20.327Z,-0.29
2023-01-26T14:41:14.525Z,-0.34
2023-01-26T14:44:08.115Z,-0.22
2023-01-26T14:46:59.645Z,-0.09
2023-01-26T14:49:50.452Z,0.00
2023-01-26T14:52:40.034Z,-0.60
2023-01-26T14:55:30.588Z,-0.15
2023-01-26T14:58:22.391Z,-0.08
2023-01-26T15:01:09.164Z,-0.15
2023-01-26T15:04:04.904Z,-0.11
2023-01-26T15:06:51.423Z,-0.42
2023-01-26T15:09:38.187Z,-0.45
2023-01-26T15:12:26.831Z,-0.17
2023-01-26T15:15:16.690Z,-0.09
2023-01-26T15:18:06.871Z,-0.03
2023-01-26T15:21:00.813Z,-0.08
2023-01-26T15:23:51.892Z,-0.34
2023-01-26T15:26:38.521Z,-0.26
2023-01-26T15:29:29.515Z,-0.25
2023-01-26T15:32:29.497Z,-0.32
2023-01-26T15:35:22.487Z,-0.24
2023-01-26T15:38:11.939Z,-0.10
2023-01-26T15:40:59.264Z,-0.07
2023-01-26T15:43:46.693Z,-0.16
2023-01-26T15:46:35.896Z,-0.34
2023-01-26T15:49:24.029Z,-0.50
2023-01-26T15:52:15.700Z,-0.15
2023-01-26T15:55:03.308Z,0.04
2023-01-26T15:57:50.809Z,-0.09
2023-01-26T16:00:39.121Z,0.03
2023-01-26T16:03:29.919Z,-0.11
2023-01-26T16:06:26.124Z,0.00
2023-01-26T16:09:14.123Z,0.06
2023-01-26T16:12:01.232Z,0.08
2023-01-26T16:14:47.607Z,0.12
2023-01-26T16:17:34.328Z,0.04
2023-01-26T16:20:22.552Z,0.03
2023-01-26T16:23:18.478Z,0.04
2023-01-26T16:26:05.182Z,-0.16
2023-01-26T16:28:51.518Z,-0.06
2023-01-26T16:31:38.417Z,-0.14
2023-01-26T16:34:25.285Z,-0.08
2023-01-26T16:37:13.361Z,-0.04
2023-01-26T16:40:00.169Z,-0.29
2023-01-26T16:42:50.783Z,-0.12
2023-01-26T16:45:38.378Z,0.04
2023-01-26T16:48:25.534Z,0.09
2023-01-26T16:51:17.906Z,0.12
2023-01-26T16:54:06.654Z,0.07
2023-01-26T16:56:53.746Z,0.05
2023-01-26T16:59:40.927Z,0.00
2023-01-26T17:02:35.208Z,-0.07
2023-01-26T17:05:23.222Z,-0.09
2023-01-26T17:08:09.997Z,-0.07
2023-01-26T17:11:02.533Z,-0.26
2023-01-26T17:13:50.410Z,-0.27
2023-01-26T17:16:37.235Z,-0.19
2023-01-26T17:19:23.916Z,-0.13
2023-01-26T17:22:10.616Z,-0.15
2023-01-26T17:24:58.309Z,-0.10
2023-01-26T17:27:46.534Z,-0.46
2023-01-26T17:30:33.342Z,-0.14
2023-01-26T17:33:20.436Z,-0.25
2023-01-26T17:36:08.443Z,-0.18
2023-01-26T17:38:55.395Z,-0.11
2023-01-26T17:41:42.220Z,-0.15
2023-01-26T17:44:30.409Z,-0.19
2023-01-26T17:47:21.121Z,-0.14
2023-01-26T17:50:10.211Z,-0.19
2023-01-26T17:52:59.042Z,-0.06
2023-01-26T17:55:46.835Z,-0.99
2023-01-26T17:58:34.046Z,-0.17
2023-01-26T18:01:23.722Z,-0.09
2023-01-26T18:04:10.714Z,-0.19
2023-01-26T18:06:57.432Z,-0.33
2023-01-26T18:09:44.348Z,-0.22
2023-01-26T18:12:31.052Z,-0.31
2023-01-26T18:15:18.054Z,-0.30
2023-01-26T18:18:06.635Z,-0.19
2023-01-26T18:20:54.092Z,-0.14
2023-01-26T18:23:40.654Z,-0.04
2023-01-26T18:26:30.109Z,-0.16
2023-01-26T18:29:16.934Z,-0.07
2023-01-26T18:32:03.615Z,-0.01
2023-01-26T18:34:51.989Z,0.03
2023-01-26T18:37:38.816Z,0.04
2023-01-26T18:40:33.441Z,0.02
2023-01-26T18:43:19.929Z,0.05
2023-01-26T18:46:06.921Z,0.07
2023-01-26T18:48:54.330Z,0.01
2023-01-26T18:51:48.000Z,-0.04
2023-01-26T18:54:34.843Z,0.05
2023-01-26T18:57:21.539Z,0.00
2023-01-26T19:00:14.247Z,-0.08
2023-01-26T19:03:00.757Z,-0.17
2023-01-26T19:05:48.869Z,0.00
2023-01-26T19:08:38.251Z,-0.06
2023-01-26T19:11:25.901Z,-0.47
2023-01-26T19:14:12.764Z,0.01
2023-01-26T19:16:59.793Z,-0.27
2023-01-26T19:19:47.683Z,0.02
2023-01-26T19:22:34.383Z,-0.11
2023-01-26T19:25:23.258Z,-0.26
2023-01-26T19:28:10.283Z,-0.17
2023-01-26T19:31:04.394Z,-0.18
2023-01-26T19:33:52.374Z,-0.04
2023-01-26T19:36:38.766Z,-0.11
2023-01-26T19:39:26.332Z,0.06
2023-01-26T19:42:14.500Z,-0.04
2023-01-26T19:45:01.267Z,-0.07
2023-01-26T19:47:48.359Z,-0.87
2023-01-26T19:50:35.193Z,0.02
2023-01-26T19:53:22.055Z,0.11
2023-01-26T19:56:11.334Z,-0.05
2023-01-26T19:59:01.550Z,-0.20
2023-01-26T20:01:48.320Z,-0.24
2023-01-26T20:04:35.101Z,-0.36
2023-01-26T20:07:21.753Z,-0.23
2023-01-26T20:10:09.418Z,-0.18
2023-01-26T20:12:57.732Z,-0.23
2023-01-26T20:15:45.660Z,-0.30
2023-01-26T20:18:32.967Z,-0.31
2023-01-26T20:21:19.785Z,-0.24
2023-01-26T20:24:07.649Z,-0.20
2023-01-26T20:26:54.432Z,-0.12
2023-01-26T20:29:40.820Z,0.04
2023-01-26T20:32:29.174Z,0.04
2023-01-26T20:35:15.752Z,-0.04
2023-01-26T20:38:02.727Z,-0.07
2023-01-26T20:40:49.466Z,-0.20
2023-01-26T20:43:39.306Z,-0.23
2023-01-26T20:46:26.076Z,-0.20
2023-01-26T20:49:16.568Z,-0.05
2023-01-26T20:52:03.242Z,-0.21
2023-01-26T20:54:50.227Z,-0.21
2023-01-26T20:57:37.071Z,-0.12
2023-01-26T21:00:24.154Z,-0.14
2023-01-26T21:03:10.931Z,-0.16
2023-01-26T21:05:59.154Z,-0.06
2023-01-26T21:08:46.207Z,0.13
2023-01-26T21:11:33.374Z,0.11
2023-01-26T21:14:19.713Z,0.12
2023-01-26T21:17:07.620Z,0.03
2023-01-26T21:19:54.131Z,0.23
2023-01-26T21:22:46.746Z,0.26
2023-01-26T21:25:33.666Z,0.17
2023-01-26T21:28:20.392Z,0.28
2023-01-26T21:31:09.608Z,0.18
2023-01-26T21:33:57.022Z,-0.70
2023-01-26T21:36:43.314Z,0.09
2023-01-26T21:39:32.032Z,0.08
2023-01-26T21:42:19.059Z,0.11
2023-01-26T21:45:24.242Z,0.02
2023-01-26T21:48:31.799Z,0.00
2023-01-26T21:51:35.786Z,0.09
2023-01-26T21:54:22.771Z,0.05
2023-01-26T21:57:25.918Z,0.15
2023-01-26T22:00:13.653Z,0.15
2023-01-26T22:03:00.791Z,0.17
2023-01-26T22:05:52.940Z,0.08
2023-01-26T22:08:40.437Z,-0.07
2023-01-26T22:11:27.911Z,0.14
2023-01-26T22:14:18.926Z,0.11
2023-01-26T22:17:05.687Z,0.22
2023-01-26T22:19:53.512Z,0.13
2023-01-26T22:22:40.085Z,0.18
2023-01-26T22:25:27.200Z,0.17
2023-01-26T22:28:14.019Z,0.09
2023-01-26T22:31:05.017Z,0.02
2023-01-26T22:33:52.296Z,-0.03
2023-01-26T22:36:39.095Z,0.05
2023-01-26T22:39:26.634Z,0.19
2023-01-26T22:42:13.368Z,0.14
2023-01-26T22:45:00.282Z,0.00
2023-01-26T22:47:49.091Z,-0.02
2023-01-26T22:50:35.972Z,-0.07
2023-01-26T22:53:22.718Z,-0.16
2023-01-26T22:56:11.585Z,-0.20
2023-01-26T22:59:00.668Z,-0.14
2023-01-26T23:01:47.314Z,-0.09
2023-01-26T23:04:35.619Z,0.07
2023-01-26T23:07:22.525Z,-0.12
2023-01-26T23:10:10.362Z,-0.12
2023-01-26T23:12:57.413Z,-0.14
2023-01-26T23:15:44.327Z,-0.16
2023-01-26T23:18:31.525Z,-0.04
2023-01-26T23:21:19.865Z,-0.08
2023-01-26T23:24:07.382Z,0.07
2023-01-26T23:26:54.403Z,0.04
2023-01-26T23:29:40.961Z,0.06
2023-01-26T23:32:27.730Z,-0.01
2023-01-26T23:35:15.550Z,0.14
2023-01-26T23:38:04.150Z,-0.01
2023-01-26T23:40:51.331Z,-0.09
2023-01-26T23:43:38.450Z,-0.11
2023-01-26T23:46:25.309Z,-0.15
2023-01-26T23:49:12.023Z,-0.06
2023-01-26T23:51:59.426Z,-0.10
2023-01-26T23:54:47.590Z,-0.11
2023-01-26T23:57:34.293Z,-0.15
